New Rockfrd, North Dakota
Current Conditions -  °F | °C
As of 5:15 PM on Wednesday 26 Nov 2014 (Local Time) from K46D Reporting Station
Clear Clear  
Wind Chill: -18°   Ceiling: Unl
Heat Index: -4°   Visibility: 10mi
Dew Point: -9°   Wind: 7mph
Humidity: 78%   Direction: 340°NNW
Pressure: 30.45"   Gusts: NA
Location:  47.6736°N, 98.8981°W
Report Text: K46D 262315Z AUTO 34006KT 10SM CLR M20/M23 A3045 RMK AO2
Loading
Personal Weather Stations






























Interactive Weather Map New forecast layout! Learn more

10-Day Weather Forecast

Advertisements
Track Severe Weather on mobile